createdAt,value
2017-04-03T00:00:44.428Z,9.43
2017-04-03T00:01:53.791Z,9.54
2017-04-03T00:03:03.004Z,9.51
2017-04-03T00:04:11.893Z,9.5
2017-04-03T00:05:20.790Z,9.58
2017-04-03T00:06:30.009Z,9.58
2017-04-03T00:07:39.373Z,9.48
2017-04-03T00:08:48.593Z,9.53
2017-04-03T00:09:57.811Z,9.51
2017-04-03T00:11:06.700Z,9.58
2017-04-03T00:12:15.588Z,9.5
2017-04-03T00:13:24.521Z,9.58
2017-04-03T00:14:33.410Z,9.54
2017-04-03T00:15:42.297Z,9.54
2017-04-03T00:16:51.830Z,9.58
2017-04-03T00:18:00.722Z,9.5
2017-04-03T00:19:09.614Z,9.54
2017-04-03T00:20:18.830Z,9.53
2017-04-03T00:21:27.721Z,9.48
2017-04-03T00:22:36.610Z,9.51
2017-04-03T00:23:45.499Z,9.54
2017-04-03T00:24:54.866Z,9.6
2017-04-03T00:26:04.081Z,9.66
2017-04-03T00:27:12.973Z,9.57
2017-04-03T00:28:21.863Z,9.65
2017-04-03T00:29:31.078Z,9.66
2017-04-03T00:30:40.442Z,9.69
2017-04-03T00:31:49.332Z,9.68
2017-04-03T00:32:58.223Z,9.5
2017-04-03T00:34:07.758Z,9.78
2017-04-03T00:35:16.652Z,9.75
2017-04-03T00:36:25.789Z,9.87
2017-04-03T00:37:35.328Z,9.76
2017-04-03T00:38:44.221Z,9.72
2017-04-03T00:39:53.438Z,9.64
2017-04-03T00:41:02.335Z,9.5
2017-04-03T00:42:11.340Z,9.57
2017-04-03T00:43:20.234Z,9.64
2017-04-03T00:44:29.450Z,9.58
2017-04-03T00:45:38.341Z,9.56
2017-04-03T00:46:47.235Z,9.76
2017-04-03T00:47:56.129Z,9.9
2017-04-03T00:49:05.021Z,9.66
2017-04-03T00:50:13.917Z,9.74
2017-04-03T00:51:23.137Z,9.71
2017-04-03T00:52:32.032Z,9.51
2017-04-03T00:53:40.920Z,9.5
2017-04-03T00:54:50.135Z,9.54
2017-04-03T00:55:59.024Z,9.64
2017-04-03T00:57:07.925Z,9.48
2017-04-03T00:58:17.137Z,9.51
2017-04-03T00:59:26.613Z,9.65
2017-04-03T01:00:35.520Z,9.86
2017-04-03T01:01:44.410Z,9.91
2017-04-03T01:02:53.301Z,9.75
2017-04-03T01:04:02.193Z,9.64
2017-04-03T01:05:11.230Z,9.66
2017-04-03T01:06:20.128Z,9.69
2017-04-03T01:07:29.346Z,9.54
2017-04-03T01:08:38.569Z,9.47
2017-04-03T01:09:47.457Z,9.36
2017-04-03T01:10:56.844Z,9.32
2017-04-03T01:12:06.385Z,9.31
2017-04-03T01:13:15.599Z,9.26
2017-04-03T01:14:24.814Z,9.2
2017-04-03T01:15:34.030Z,9.26
2017-04-03T01:16:43.556Z,9.23
2017-04-03T01:17:52.768Z,9.08
2017-04-03T01:19:01.984Z,9.13
2017-04-03T01:20:11.218Z,9.1
2017-04-03T01:21:20.107Z,9.1
2017-04-03T01:22:29.578Z,9.26
2017-04-03T01:23:38.799Z,9.21
2017-04-03T01:24:48.017Z,9.24
2017-04-03T01:25:56.905Z,9.29
2017-04-03T01:27:05.794Z,9.2
2017-04-03T01:28:15.207Z,9.18
2017-04-03T01:29:24.420Z,9.13
2017-04-03T01:30:33.312Z,9.05
2017-04-03T01:31:42.204Z,9.08
2017-04-03T01:32:51.092Z,9.14
2017-04-03T01:34:00.309Z,9.31
2017-04-03T01:35:09.526Z,9.38
2017-04-03T01:36:18.741Z,9.2
2017-04-03T01:37:27.958Z,9.15
2017-04-03T01:38:37.498Z,9.04
2017-04-03T01:39:47.010Z,9.13
2017-04-03T01:40:55.925Z,9.23
2017-04-03T01:42:04.812Z,9.18
2017-04-03T01:43:13.710Z,9.18
2017-04-03T01:44:22.597Z,9.24
2017-04-03T01:45:31.643Z,9.18
2017-04-03T01:46:40.861Z,9.18
2017-04-03T01:47:50.077Z,9.14
2017-04-03T01:48:59.301Z,9.05
2017-04-03T01:50:08.520Z,9.04
2017-04-03T01:51:17.830Z,8.96
2017-04-03T01:52:27.696Z,9.28
2017-04-03T01:53:36.587Z,8.96
2017-04-03T01:54:45.482Z,9.08
2017-04-03T01:55:54.372Z,8.95
2017-04-03T01:57:03.364Z,9.02
2017-04-03T01:58:12.254Z,9.11
2017-04-03T01:59:21.788Z,9.05
2017-04-03T02:00:30.676Z,8.98
2017-04-03T02:01:39.570Z,8.94
2017-04-03T02:02:49.113Z,9.01
2017-04-03T02:03:58.328Z,8.95
2017-04-03T02:05:07.869Z,8.77
2017-04-03T02:06:16.756Z,8.87
2017-04-03T02:07:25.647Z,8.86
2017-04-03T02:08:34.837Z,8.76
2017-04-03T02:09:44.095Z,8.73
2017-04-03T02:10:53.319Z,8.87
2017-04-03T02:12:02.538Z,8.84
2017-04-03T02:13:12.076Z,8.8
2017-04-03T02:14:21.221Z,8.63
2017-04-03T02:15:30.115Z,8.71
2017-04-03T02:16:39.007Z,8.55
2017-04-03T02:17:47.897Z,8.55
2017-04-03T02:18:56.786Z,8.65
2017-04-03T02:20:05.975Z,8.59
2017-04-03T02:21:14.859Z,8.79
2017-04-03T02:22:24.398Z,8.76
2017-04-03T02:23:33.610Z,8.95
2017-04-03T02:24:42.503Z,8.63
2017-04-03T02:25:51.722Z,8.44
2017-04-03T02:27:00.613Z,8.36
2017-04-03T02:28:09.509Z,8.41
2017-04-03T02:29:18.397Z,8.44
2017-04-03T02:30:27.288Z,8.43
2017-04-03T02:31:36.333Z,8.53
2017-04-03T02:32:45.551Z,8.59
2017-04-03T02:33:54.448Z,8.48
2017-04-03T02:35:04.329Z,8.58
2017-04-03T02:36:13.238Z,8.4
2017-04-03T02:37:22.609Z,8.45
2017-04-03T02:38:31.498Z,8.48
2017-04-03T02:39:40.384Z,8.59
2017-04-03T02:40:49.274Z,8.56
2017-04-03T02:41:58.162Z,8.59
2017-04-03T02:43:07.480Z,8.61
2017-04-03T02:44:16.371Z,8.44
2017-04-03T02:45:25.259Z,8.48
2017-04-03T02:46:34.150Z,8.41
2017-04-03T02:47:43.363Z,8.59
2017-04-03T02:48:52.312Z,8.58
2017-04-03T02:50:01.528Z,8.61
2017-04-03T02:51:10.416Z,8.58
2017-04-03T02:52:19.309Z,8.56
2017-04-03T02:53:28.529Z,8.48
2017-04-03T02:54:37.840Z,8.47
2017-04-03T02:55:46.728Z,8.53
2017-04-03T02:56:55.623Z,8.59
2017-04-03T02:58:05.163Z,8.53
2017-04-03T02:59:14.384Z,8.53
2017-04-03T03:00:23.645Z,8.58
2017-04-03T03:01:32.860Z,8.66
2017-04-03T03:02:41.754Z,8.55
2017-04-03T03:03:50.642Z,8.63
2017-04-03T03:04:59.532Z,8.58
2017-04-03T03:06:08.721Z,8.61
2017-04-03T03:07:17.623Z,8.66
2017-04-03T03:08:27.163Z,8.58
2017-04-03T03:09:36.708Z,8.56
2017-04-03T03:10:45.921Z,8.45
2017-04-03T03:11:55.384Z,8.58
2017-04-03T03:13:04.274Z,8.5
2017-04-03T03:14:13.489Z,8.65
2017-04-03T03:15:22.705Z,8.59
2017-04-03T03:16:31.918Z,8.66
2017-04-03T03:17:40.861Z,8.56
2017-04-03T03:18:49.751Z,8.63
2017-04-03T03:19:58.637Z,8.76
2017-04-03T03:21:08.173Z,8.76
2017-04-03T03:22:17.392Z,8.47
2017-04-03T03:23:26.433Z,8.41
2017-04-03T03:24:35.327Z,8.4
2017-04-03T03:25:44.218Z,8.48
2017-04-03T03:26:53.107Z,8.48
2017-04-03T03:28:01.998Z,8.41
2017-04-03T03:29:11.044Z,8.38
2017-04-03T03:30:19.935Z,8.4
2017-04-03T03:31:28.826Z,8.28
2017-04-03T03:32:38.043Z,8.33
2017-04-03T03:33:46.930Z,8.29
2017-04-03T03:34:56.119Z,8.33
2017-04-03T03:36:05.007Z,8.38
2017-04-03T03:37:13.897Z,8.45
2017-04-03T03:38:22.790Z,8.59
2017-04-03T03:39:32.002Z,8.65
2017-04-03T03:40:40.946Z,8.65
2017-04-03T03:41:49.838Z,8.68
2017-04-03T03:42:59.060Z,8.56
2017-04-03T03:44:08.278Z,8.61
2017-04-03T03:45:17.173Z,8.62
2017-04-03T03:46:26.065Z,8.63
2017-04-03T03:47:34.957Z,8.62
2017-04-03T03:48:43.842Z,8.58
2017-04-03T03:49:53.390Z,8.52
2017-04-03T03:51:02.605Z,8.45
2017-04-03T03:52:11.697Z,8.58
2017-04-03T03:53:20.587Z,8.58
2017-04-03T03:54:29.803Z,8.65
2017-04-03T03:55:39.019Z,8.55
2017-04-03T03:56:48.231Z,8.58
2017-04-03T03:57:57.272Z,8.76
2017-04-03T03:59:06.162Z,8.52
2017-04-03T04:00:15.709Z,8.48
2017-04-03T04:01:24.600Z,8.52
2017-04-03T04:02:33.490Z,8.63
2017-04-03T04:03:42.634Z,8.58
2017-04-03T04:04:52.177Z,8.56
2017-04-03T04:06:01.396Z,8.41
2017-04-03T04:07:10.619Z,8.47
2017-04-03T04:08:19.830Z,8.44
2017-04-03T04:09:28.868Z,8.41
2017-04-03T04:10:37.761Z,8.38
2017-04-03T04:11:46.656Z,8.3
2017-04-03T04:12:55.872Z,8.41
2017-04-03T04:14:04.761Z,8.47
2017-04-03T04:15:13.803Z,8.58
2017-04-03T04:16:22.694Z,8.52
2017-04-03T04:17:31.591Z,8.43
2017-04-03T04:18:41.124Z,8.37
2017-04-03T04:19:50.991Z,8.3
2017-04-03T04:21:00.033Z,8.33
2017-04-03T04:22:09.252Z,8.48
2017-04-03T04:23:18.796Z,8.44
2017-04-03T04:24:28.010Z,8.34
2017-04-03T04:25:37.552Z,8.48
2017-04-03T04:26:46.582Z,8.43
2017-04-03T04:27:56.130Z,8.61
2017-04-03T04:29:05.018Z,8.52
2017-04-03T04:30:13.924Z,8.48
2017-04-03T04:31:23.459Z,8.5
2017-04-03T04:32:32.722Z,8.45
2017-04-03T04:33:41.938Z,8.58
2017-04-03T04:34:51.155Z,8.53
2017-04-03T04:36:00.056Z,8.47
2017-04-03T04:37:09.923Z,8.58
2017-04-03T04:38:18.812Z,8.62
2017-04-03T04:39:28.025Z,8.77
2017-04-03T04:40:36.921Z,8.62
2017-04-03T04:41:45.811Z,8.59
2017-04-03T04:42:54.704Z,8.45
2017-04-03T04:44:03.749Z,8.59
2017-04-03T04:45:13.298Z,8.52
2017-04-03T04:46:22.519Z,8.45
2017-04-03T04:47:32.381Z,8.41
2017-04-03T04:48:41.275Z,8.53
2017-04-03T04:49:51.065Z,8.53
2017-04-03T04:50:59.978Z,8.62
2017-04-03T04:52:08.870Z,8.56
2017-04-03T04:53:18.110Z,8.58
2017-04-03T04:54:27.351Z,8.61
2017-04-03T04:55:36.297Z,8.59
2017-04-03T04:56:45.188Z,8.73
2017-04-03T04:57:54.403Z,8.71
2017-04-03T04:59:03.943Z,8.71
2017-04-03T05:00:13.193Z,8.76
2017-04-03T05:01:22.409Z,8.61
2017-04-03T05:02:31.298Z,8.62
2017-04-03T05:03:40.190Z,8.73
2017-04-03T05:04:49.407Z,8.77
2017-04-03T05:05:58.297Z,8.77
2017-04-03T05:07:07.446Z,8.83
2017-04-03T05:08:16.991Z,8.79
2017-04-03T05:09:26.526Z,8.92
2017-04-03T05:10:35.419Z,8.91
2017-04-03T05:11:44.311Z,8.81
2017-04-03T05:12:53.457Z,8.83
2017-04-03T05:14:03.002Z,8.84
2017-04-03T05:15:12.228Z,8.98
2017-04-03T05:16:21.443Z,9.23
2017-04-03T05:17:30.666Z,9.21
2017-04-03T05:18:39.933Z,9.08
2017-04-03T05:19:49.152Z,9.05
2017-04-03T05:20:58.694Z,9.08
2017-04-03T05:22:07.595Z,9.24
2017-04-03T05:23:17.136Z,9.26
2017-04-03T05:24:26.391Z,9.05
2017-04-03T05:25:35.285Z,9.18
2017-04-03T05:26:44.540Z,8.86
2017-04-03T05:27:54.081Z,8.91
2017-04-03T05:29:02.977Z,8.95
2017-04-03T05:30:12.247Z,8.95
2017-04-03T05:31:21.463Z,9.05
2017-04-03T05:32:30.355Z,9.08
2017-04-03T05:33:39.244Z,8.87
2017-04-03T05:34:48.789Z,8.81
2017-04-03T05:35:58.110Z,8.77
2017-04-03T05:37:07.330Z,8.79
2017-04-03T05:38:16.867Z,8.98
2017-04-03T05:39:26.129Z,8.92
2017-04-03T05:40:35.015Z,8.94
2017-04-03T05:41:44.385Z,8.92
2017-04-03T05:42:53.601Z,8.98
2017-04-03T05:44:03.143Z,8.89
2017-04-03T05:45:12.037Z,8.86
2017-04-03T05:46:21.249Z,8.95
2017-04-03T05:47:31.043Z,8.94
2017-04-03T05:48:39.935Z,8.83
2017-04-03T05:49:49.831Z,8.89
2017-04-03T05:50:59.375Z,8.76
2017-04-03T05:52:08.262Z,8.89
2017-04-03T05:53:17.363Z,8.86
2017-04-03T05:54:26.575Z,8.91
2017-04-03T05:55:35.790Z,8.89
2017-04-03T05:56:45.015Z,8.96
2017-04-03T05:57:53.902Z,8.84
2017-04-03T05:59:03.590Z,8.86
2017-04-03T06:00:12.805Z,8.94
2017-04-03T06:01:21.692Z,8.89
2017-04-03T06:02:30.616Z,8.84
2017-04-03T06:03:39.540Z,8.71
2017-04-03T06:04:48.577Z,8.89
2017-04-03T06:05:57.789Z,8.86
2017-04-03T06:07:07.653Z,8.89
2017-04-03T06:08:17.194Z,8.95
2017-04-03T06:09:26.412Z,9.02
2017-04-03T06:10:35.874Z,9.11
2017-04-03T06:11:44.765Z,9.11
2017-04-03T06:12:53.978Z,9.1
2017-04-03T06:14:03.838Z,9.14
2017-04-03T06:15:13.051Z,9.04
2017-04-03T06:16:22.714Z,9.11
2017-04-03T06:17:31.931Z,9.08
2017-04-03T06:18:41.142Z,9.05
2017-04-03T06:19:50.030Z,9.08
2017-04-03T06:20:59.890Z,9.13
2017-04-03T06:22:09.581Z,9.2
2017-04-03T06:23:18.805Z,9.21
2017-04-03T06:24:28.016Z,9.21
2017-04-03T06:25:37.233Z,9.21
2017-04-03T06:26:46.450Z,9.21
2017-04-03T06:27:55.765Z,9.24
2017-04-03T06:29:05.310Z,9.23
2017-04-03T06:30:14.208Z,9.36
2017-04-03T06:31:23.422Z,9.42
2017-04-03T06:32:32.965Z,9.42
2017-04-03T06:33:42.005Z,9.43
2017-04-03T06:34:51.540Z,9.38
2017-04-03T06:36:00.430Z,9.36
2017-04-03T06:37:09.647Z,9.35
2017-04-03T06:38:18.863Z,9.39
2017-04-03T06:39:28.124Z,9.39
2017-04-03T06:40:37.015Z,9.38
2017-04-03T06:41:46.235Z,9.35
2017-04-03T06:42:55.131Z,9.4
2017-04-03T06:44:04.993Z,9.48
2017-04-03T06:45:14.258Z,9.53
2017-04-03T06:46:23.154Z,9.47
2017-04-03T06:47:32.048Z,9.51
2017-04-03T06:48:40.937Z,9.53
2017-04-03T06:49:49.830Z,9.46
2017-04-03T06:50:58.836Z,9.68
2017-04-03T06:52:08.052Z,9.64
2017-04-03T06:53:16.943Z,9.56
2017-04-03T06:54:25.831Z,9.54
2017-04-03T06:55:34.723Z,9.53
2017-04-03T06:56:43.764Z,9.54
2017-04-03T06:57:52.667Z,9.48
2017-04-03T06:59:02.206Z,9.53
2017-04-03T07:00:11.099Z,9.5
2017-04-03T07:01:20.636Z,9.57
2017-04-03T07:02:30.108Z,9.57
2017-04-03T07:03:38.999Z,9.6
2017-04-03T07:04:47.890Z,9.66
2017-04-03T07:05:57.121Z,9.65
2017-04-03T07:07:06.016Z,9.74
2017-04-03T07:08:15.161Z,9.72
2017-04-03T07:09:24.053Z,9.72
2017-04-03T07:10:33.267Z,9.79
2017-04-03T07:11:42.485Z,9.79
2017-04-03T07:12:51.375Z,9.74
2017-04-03T07:14:00.695Z,9.81
2017-04-03T07:15:09.594Z,9.74
2017-04-03T07:16:18.815Z,9.79
2017-04-03T07:17:27.704Z,9.79
2017-04-03T07:18:36.594Z,9.89
2017-04-03T07:19:45.644Z,9.89
2017-04-03T07:20:54.538Z,9.93
2017-04-03T07:22:03.437Z,10.04
2017-04-03T07:23:12.980Z,9.99
2017-04-03T07:24:21.871Z,10.08
2017-04-03T07:25:31.191Z,10.02
2017-04-03T07:26:40.413Z,9.96
2017-04-03T07:27:49.954Z,10.02
2017-04-03T07:28:59.175Z,10.02
2017-04-03T07:30:08.392Z,10.04
2017-04-03T07:31:17.711Z,10.07
2017-04-03T07:32:26.608Z,10.08
2017-04-03T07:33:35.824Z,10.12
2017-04-03T07:34:45.043Z,10.05
2017-04-03T07:35:54.600Z,10.09
2017-04-03T07:37:04.293Z,10.11
2017-04-03T07:38:13.509Z,10.09
2017-04-03T07:39:23.370Z,10.11
2017-04-03T07:40:33.557Z,10.2
2017-04-03T07:41:42.449Z,10.2
2017-04-03T07:42:51.718Z,10.36
2017-04-03T07:44:00.610Z,10.29
2017-04-03T07:45:09.526Z,10.45
2017-04-03T07:46:18.426Z,10.44
2017-04-03T07:47:27.324Z,10.44
2017-04-03T07:48:36.265Z,10.36
2017-04-03T07:49:45.481Z,10.34
2017-04-03T07:50:55.021Z,10.32
2017-04-03T07:52:03.916Z,10.38
2017-04-03T07:53:13.138Z,10.32
2017-04-03T07:54:22.505Z,10.47
2017-04-03T07:55:31.404Z,10.33
2017-04-03T07:56:40.618Z,10.34
2017-04-03T07:57:49.507Z,10.38
2017-04-03T07:58:59.051Z,10.44
2017-04-03T08:00:08.319Z,10.38
2017-04-03T08:01:17.865Z,10.36
2017-04-03T08:02:27.085Z,10.4
2017-04-03T08:03:36.304Z,10.44
2017-04-03T08:04:45.199Z,10.4
2017-04-03T08:05:54.140Z,10.51
2017-04-03T08:07:03.396Z,10.48
2017-04-03T08:08:12.617Z,10.55
2017-04-03T08:09:21.832Z,10.52
2017-04-03T08:10:31.048Z,10.59
2017-04-03T08:11:40.420Z,10.71
2017-04-03T08:12:49.311Z,10.63
2017-04-03T08:13:58.527Z,10.61
2017-04-03T08:15:07.747Z,10.63
2017-04-03T08:16:17.297Z,10.66
2017-04-03T08:17:26.562Z,10.73
2017-04-03T08:18:35.793Z,10.73
2017-04-03T08:19:45.662Z,10.79
2017-04-03T08:20:56.179Z,10.76
2017-04-03T08:22:05.077Z,10.73
2017-04-03T08:23:14.667Z,10.81
2017-04-03T08:24:24.536Z,10.78
2017-04-03T08:25:33.427Z,10.73
2017-04-03T08:26:42.323Z,10.81
2017-04-03T08:27:51.542Z,10.71
2017-04-03T08:29:01.340Z,10.78
2017-04-03T08:30:10.558Z,10.79
2017-04-03T08:31:19.771Z,10.81
2017-04-03T08:32:28.664Z,10.85
2017-04-03T08:33:37.878Z,10.96
2017-04-03T08:34:47.121Z,11.07
2017-04-03T08:35:56.661Z,11.18
2017-04-03T08:37:05.552Z,11.27
2017-04-03T08:38:14.441Z,11.24
2017-04-03T08:39:23.659Z,11.22
2017-04-03T08:40:33.401Z,11.07
2017-04-03T08:41:42.293Z,11.28
2017-04-03T08:42:51.185Z,11.1
2017-04-03T08:44:00.402Z,11.09
2017-04-03T08:45:09.300Z,11.04
2017-04-03T08:46:18.573Z,11
2017-04-03T08:47:27.793Z,11.09
2017-04-03T08:48:37.013Z,11.1
2017-04-03T08:49:45.912Z,11.19
2017-04-03T08:50:55.128Z,11.14
2017-04-03T08:52:04.394Z,11.18
2017-04-03T08:53:13.612Z,11.24
2017-04-03T08:54:22.829Z,11.25
2017-04-03T08:55:31.724Z,11.17
2017-04-03T08:56:40.620Z,11.24
2017-04-03T08:57:50.463Z,11.06
2017-04-03T08:58:59.358Z,11.15
2017-04-03T09:00:08.254Z,11.22
2017-04-03T09:01:17.474Z,11.24
2017-04-03T09:02:27.038Z,11.29
2017-04-03T09:03:35.930Z,11.44
2017-04-03T09:04:44.821Z,11.32
2017-04-03T09:05:54.362Z,11.43
2017-04-03T09:07:03.263Z,11.51
2017-04-03T09:08:12.156Z,11.44
2017-04-03T09:09:21.895Z,11.32
2017-04-03T09:10:31.116Z,11.29
2017-04-03T09:11:40.670Z,11.43
2017-04-03T09:12:49.885Z,11.6
2017-04-03T09:13:59.103Z,11.58
2017-04-03T09:15:08.147Z,11.76
2017-04-03T09:16:17.039Z,11.91
2017-04-03T09:17:26.258Z,12.1
2017-04-03T09:18:35.147Z,12.17
2017-04-03T09:19:44.040Z,12.17
2017-04-03T09:20:53.884Z,12.14
2017-04-03T09:22:03.113Z,12.29
2017-04-03T09:23:12.658Z,12.21
2017-04-03T09:24:21.556Z,12.19
2017-04-03T09:25:30.775Z,12.14
2017-04-03T09:26:39.714Z,12.14
2017-04-03T09:27:48.935Z,12.05
2017-04-03T09:28:58.158Z,12.16
2017-04-03T09:30:07.381Z,12.16
2017-04-03T09:31:16.276Z,12.16
2017-04-03T09:32:25.585Z,12.05
2017-04-03T09:33:34.484Z,12.01
2017-04-03T09:34:43.702Z,12.02
2017-04-03T09:35:52.917Z,11.83
2017-04-03T09:37:02.133Z,11.99
2017-04-03T09:38:11.127Z,12.13
2017-04-03T09:39:20.020Z,12.17
2017-04-03T09:40:29.240Z,12.16
2017-04-03T09:41:38.789Z,12.2
2017-04-03T09:42:48.007Z,12.14
2017-04-03T09:43:56.954Z,12.31
2017-04-03T09:45:05.845Z,12.41
2017-04-03T09:46:14.737Z,12.34
2017-04-03T09:47:23.991Z,12.32
2017-04-03T09:48:32.894Z,12.27
2017-04-03T09:49:42.364Z,12.17
2017-04-03T09:50:51.591Z,12.09
2017-04-03T09:52:00.484Z,12.05
2017-04-03T09:53:09.379Z,12.16
2017-04-03T09:54:18.270Z,12.12
2017-04-03T09:55:27.222Z,12.01
2017-04-03T09:56:36.115Z,11.95
2017-04-03T09:57:45.659Z,11.94
2017-04-03T09:58:54.878Z,11.94
2017-04-03T10:00:03.777Z,11.94
2017-04-03T10:01:12.922Z,12.1
2017-04-03T10:02:22.139Z,12.14
2017-04-03T10:03:31.029Z,12.17
2017-04-03T10:04:39.922Z,12.19
2017-04-03T10:05:48.815Z,12.35
2017-04-03T10:06:57.859Z,12.24
2017-04-03T10:08:07.401Z,12.37
2017-04-03T10:09:16.621Z,12.41
2017-04-03T10:10:25.517Z,12.42
2017-04-03T10:11:34.414Z,12.41
2017-04-03T10:12:43.684Z,12.45
2017-04-03T10:13:52.901Z,12.49
2017-04-03T10:15:01.793Z,12.42
2017-04-03T10:16:11.015Z,12.38
2017-04-03T10:17:19.908Z,12.39
2017-04-03T10:18:29.496Z,12.32
2017-04-03T10:19:38.390Z,12.16
2017-04-03T10:20:47.290Z,12.1
2017-04-03T10:21:56.504Z,12.16
2017-04-03T10:23:05.395Z,12.02
2017-04-03T10:24:14.486Z,11.85
2017-04-03T10:25:23.386Z,11.86
2017-04-03T10:26:32.603Z,11.9
2017-04-03T10:27:41.820Z,12.07
2017-04-03T10:28:51.363Z,12.23
2017-04-03T10:30:00.254Z,12.16
2017-04-03T10:31:09.480Z,12.14
2017-04-03T10:32:18.369Z,12.09
2017-04-03T10:33:27.263Z,11.99
2017-04-03T10:34:36.805Z,12.07
2017-04-03T10:35:45.847Z,12.14
2017-04-03T10:36:54.745Z,12.29
2017-04-03T10:38:04.287Z,12.2
2017-04-03T10:39:13.505Z,12.34
2017-04-03T10:40:22.408Z,12.34
2017-04-03T10:41:32.004Z,12.39
2017-04-03T10:42:40.900Z,12.41
2017-04-03T10:43:50.123Z,12.39
2017-04-03T10:44:59.019Z,12.42
2017-04-03T10:46:07.928Z,12.49
2017-04-03T10:47:16.970Z,12.7
2017-04-03T10:48:26.189Z,12.68
2017-04-03T10:49:35.402Z,12.77
2017-04-03T10:50:44.297Z,12.82
2017-04-03T10:51:53.187Z,12.92
2017-04-03T10:53:03.130Z,13.08
2017-04-03T10:54:12.364Z,13.17
2017-04-03T10:55:21.907Z,13.15
2017-04-03T10:56:30.811Z,13.29
2017-04-03T10:57:40.351Z,13.26
2017-04-03T10:58:49.493Z,13.46
2017-04-03T10:59:58.390Z,13.52
2017-04-03T11:01:07.617Z,13.59
2017-04-03T11:02:16.519Z,13.48
2017-04-03T11:03:26.091Z,13.46
2017-04-03T11:04:35.389Z,13.41
2017-04-03T11:05:44.615Z,13.25
2017-04-03T11:06:53.538Z,13
2017-04-03T11:08:02.474Z,12.89
2017-04-03T11:09:11.694Z,12.92
2017-04-03T11:10:21.064Z,13.03
2017-04-03T11:11:29.962Z,13.03
2017-04-03T11:12:39.397Z,12.92
2017-04-03T11:13:48.293Z,12.97
2017-04-03T11:14:57.185Z,13.01
2017-04-03T11:16:06.558Z,13.08
2017-04-03T11:17:15.457Z,13.11
2017-04-03T11:18:24.351Z,13.32
2017-04-03T11:19:33.249Z,13.46
2017-04-03T11:20:42.527Z,13.55
2017-04-03T11:21:52.088Z,13.64
2017-04-03T11:23:01.632Z,13.7
2017-04-03T11:24:10.858Z,13.75
2017-04-03T11:25:19.754Z,13.71
2017-04-03T11:26:28.700Z,13.66
2017-04-03T11:27:37.734Z,13.81
2017-04-03T11:28:46.652Z,13.85
2017-04-03T11:29:55.575Z,13.77
2017-04-03T11:31:04.821Z,13.82
2017-04-03T11:32:13.740Z,13.71
2017-04-03T11:33:23.108Z,13.54
2017-04-03T11:34:32.048Z,13.41
2017-04-03T11:35:40.950Z,13.44
2017-04-03T11:36:49.892Z,13.51
2017-04-03T11:37:59.450Z,13.52
2017-04-03T11:39:08.953Z,13.49
2017-04-03T11:40:18.402Z,13.48
2017-04-03T11:41:27.301Z,13.49
2017-04-03T11:42:36.540Z,13.49
2017-04-03T11:43:46.081Z,13.57
2017-04-03T11:44:55.379Z,13.51
2017-04-03T11:46:04.648Z,13.64
2017-04-03T11:47:13.545Z,13.66
2017-04-03T11:48:22.790Z,13.7
2017-04-03T11:49:31.685Z,13.78
2017-04-03T11:50:41.387Z,13.78
2017-04-03T11:51:50.605Z,13.79
2017-04-03T11:52:59.502Z,13.69
2017-04-03T11:54:08.398Z,13.63
2017-04-03T11:55:17.617Z,13.78
2017-04-03T11:56:26.936Z,13.92
2017-04-03T11:57:35.856Z,14.02
2017-04-03T11:58:44.750Z,14.15
2017-04-03T11:59:54.013Z,14.18
2017-04-03T12:01:02.981Z,14.33
2017-04-03T12:02:12.548Z,14.54
2017-04-03T12:03:21.898Z,14.62
2017-04-03T12:04:31.177Z,14.6
2017-04-03T12:05:40.073Z,14.46
2017-04-03T12:06:49.303Z,14.52
2017-04-03T12:07:58.712Z,14.32
2017-04-03T12:09:08.326Z,14.25
2017-04-03T12:10:17.223Z,14.51
2017-04-03T12:11:26.487Z,14.54
2017-04-03T12:12:35.399Z,14.62
2017-04-03T12:13:45.192Z,14.7
2017-04-03T12:14:54.099Z,14.81
2017-04-03T12:16:02.999Z,14.83
2017-04-03T12:17:11.907Z,14.72
2017-04-03T12:18:20.813Z,14.46
2017-04-03T12:19:30.086Z,14.73
2017-04-03T12:20:38.990Z,15.09
2017-04-03T12:21:48.215Z,15.28
2017-04-03T12:22:57.118Z,15.27
2017-04-03T12:24:06.342Z,15.25
2017-04-03T12:25:16.043Z,15.28
2017-04-03T12:26:25.273Z,15.38
2017-04-03T12:27:34.502Z,15.31
2017-04-03T12:28:43.723Z,15.09
2017-04-03T12:29:52.624Z,15.2
2017-04-03T12:31:02.103Z,15.43
2017-04-03T12:32:11.329Z,15.57
2017-04-03T12:33:20.231Z,15.65
2017-04-03T12:34:29.133Z,15.74
2017-04-03T12:35:38.367Z,15.9
2017-04-03T12:36:47.745Z,16.02
2017-04-03T12:37:56.981Z,15.92
2017-04-03T12:39:05.892Z,15.76
2017-04-03T12:40:15.153Z,15.82
2017-04-03T12:41:24.065Z,15.65
2017-04-03T12:42:33.994Z,15.72
2017-04-03T12:43:42.927Z,15.67
2017-04-03T12:44:52.156Z,15.86
2017-04-03T12:46:01.392Z,15.78
2017-04-03T12:47:10.300Z,15.89
2017-04-03T12:48:19.682Z,15.97
2017-04-03T12:49:28.589Z,16.07
2017-04-03T12:50:37.823Z,16.25
2017-04-03T12:51:46.728Z,16.45
2017-04-03T12:52:55.953Z,16.33
2017-04-03T12:54:05.014Z,16.04
2017-04-03T12:55:14.240Z,15.97
2017-04-03T12:56:23.145Z,16.02
2017-04-03T12:57:32.047Z,15.94
2017-04-03T12:58:40.951Z,15.78
2017-04-03T12:59:50.006Z,15.86
2017-04-03T13:00:59.236Z,16.02
2017-04-03T13:02:08.792Z,16.28
2017-04-03T13:03:17.696Z,16.39
2017-04-03T13:04:26.928Z,16.31
2017-04-03T13:05:36.235Z,16.28
2017-04-03T13:06:45.466Z,16.45
2017-04-03T13:07:54.367Z,16.57
2017-04-03T13:09:03.925Z,16.67
2017-04-03T13:10:12.828Z,16.81
2017-04-03T13:11:21.880Z,16.85
2017-04-03T13:12:31.150Z,16.89
2017-04-03T13:13:40.051Z,16.97
2017-04-03T13:14:49.278Z,16.96
2017-04-03T13:15:58.547Z,17.08
2017-04-03T13:17:07.679Z,17.16
2017-04-03T13:18:17.294Z,17.04
2017-04-03T13:19:26.207Z,17.36
2017-04-03T13:20:35.474Z,17.3
2017-04-03T13:21:44.712Z,17.4
2017-04-03T13:22:54.541Z,17.33
2017-04-03T13:24:03.778Z,17.46
2017-04-03T13:25:12.679Z,17.52
2017-04-03T13:26:21.904Z,17.62
2017-04-03T13:27:30.806Z,17.58
2017-04-03T13:28:40.783Z,17.62
2017-04-03T13:29:50.016Z,17.52
2017-04-03T13:30:59.251Z,17.48
2017-04-03T13:32:08.485Z,17.44
2017-04-03T13:33:17.716Z,17.54
2017-04-03T13:34:26.765Z,17.43
2017-04-03T13:35:35.991Z,17.63
2017-04-03T13:36:44.896Z,17.62
2017-04-03T13:37:54.123Z,17.68
2017-04-03T13:39:03.024Z,17.75
2017-04-03T13:40:12.178Z,17.89
2017-04-03T13:41:21.752Z,17.97
2017-04-03T13:42:30.981Z,17.96
2017-04-03T13:43:40.537Z,18.11
2017-04-03T13:44:49.440Z,18.14
2017-04-03T13:45:58.497Z,18.3
2017-04-03T13:47:07.728Z,18.17
2017-04-03T13:48:16.640Z,18.1
2017-04-03T13:49:25.546Z,17.72
2017-04-03T13:50:34.456Z,17.56
2017-04-03T13:51:43.784Z,17.64
2017-04-03T13:52:53.011Z,17.68
2017-04-03T13:54:02.237Z,17.54
2017-04-03T13:55:11.467Z,17.81
2017-04-03T13:56:20.693Z,18
2017-04-03T13:57:30.075Z,18.21
2017-04-03T13:58:38.978Z,18.35
2017-04-03T13:59:47.883Z,18.48
2017-04-03T14:00:57.127Z,18.66
2017-04-03T14:02:07.018Z,18.85
2017-04-03T14:03:15.973Z,18.81
2017-04-03T14:04:24.887Z,19.07
2017-04-03T14:05:33.817Z,19.21
2017-04-03T14:06:43.381Z,19.36
2017-04-03T14:07:52.331Z,19.48
2017-04-03T14:09:01.945Z,19.59
2017-04-03T14:10:11.505Z,19.71
2017-04-03T14:11:20.411Z,19.76
2017-04-03T14:12:29.652Z,19.86
2017-04-03T14:13:38.562Z,19.87
2017-04-03T14:14:47.845Z,19.77
2017-04-03T14:15:56.752Z,19.92
2017-04-03T14:17:06.002Z,19.69
2017-04-03T14:18:14.915Z,19.54
2017-04-03T14:19:24.149Z,19.74
2017-04-03T14:20:33.436Z,19.94
2017-04-03T14:21:43.084Z,19.91
2017-04-03T14:22:52.344Z,19.94
2017-04-03T14:24:01.264Z,19.94
2017-04-03T14:25:10.212Z,20.05
2017-04-03T14:26:19.564Z,20.08
2017-04-03T14:27:28.851Z,20.06
2017-04-03T14:28:38.090Z,20.24
2017-04-03T14:29:47.016Z,20.31
2017-04-03T14:30:55.941Z,20.35
2017-04-03T14:32:05.256Z,20.67
2017-04-03T14:33:14.501Z,20.57
2017-04-03T14:34:23.745Z,20.39
2017-04-03T14:35:32.671Z,20.36
2017-04-03T14:36:42.237Z,20.17
2017-04-03T14:37:51.571Z,20.31
2017-04-03T14:39:00.496Z,20.28
2017-04-03T14:40:09.415Z,20.32
2017-04-03T14:41:18.364Z,20.28
2017-04-03T14:42:27.614Z,20.35
2017-04-03T14:43:37.600Z,20.5
2017-04-03T14:44:46.843Z,20.33
2017-04-03T14:45:56.105Z,20.23
2017-04-03T14:47:05.062Z,20.32
2017-04-03T14:48:14.436Z,20.52
2017-04-03T14:49:23.824Z,20.72
2017-04-03T14:50:33.059Z,20.85
2017-04-03T14:51:41.980Z,20.59
2017-04-03T14:52:50.900Z,20.62
2017-04-03T14:53:59.815Z,20.74
2017-04-03T14:55:09.429Z,20.47
2017-04-03T14:56:18.668Z,20.54
2017-04-03T14:57:27.908Z,20.2
2017-04-03T14:58:37.472Z,19.91
2017-04-03T14:59:46.708Z,20.2
2017-04-03T15:00:55.774Z,20.24
2017-04-03T15:02:05.356Z,20.23
2017-04-03T15:03:14.272Z,20.18
2017-04-03T15:04:23.189Z,20.1
2017-04-03T15:05:32.101Z,20.02
2017-04-03T15:06:41.314Z,19.74
2017-04-03T15:07:50.225Z,19.61